map of YUT home
YUT - Airport
Location
City:  Naujaat, Kitikmeot, Nunavut, Canada
Near (Alt.):Repulse Bay
Name:Repulse Bay Airport
ICAO:CYUT
IATA:YUT

Details
Type:Airport (Airfield)
Use:Public/Civil
Latitude:6631'14"N (66.520556)
Longitude:8613'29"W (-86.224721)
Elevation:75 ft (23 m)
Variation:17.51W (WMM2015v2 magnetic declination)
0.48 annual change
Runways:1
Longest:3400 ft (1036 m)

Time
Time Zone:UTC-6 (DST-5)
Local Time:

Weather
METAR:CYUT 041400Z 35023KT 1/4SM +BLSN BKN020 M28/M32 A2991 RMK BLSN3SC3 SLP133

Related Locations
Nearby:
Farthest:YWKS: 11947 mi / 19227 km
Wilkins Runway (Casey), Upper Peterson Glacier, AQ

Find:

   beyond  
but within

Other Information
Maps:
NOTAMs:
Links:
Sources:

  
  • flag of Canada
  • flag of Nunavut
  

Airport Diagram

Airport diagram for YUT

Airport diagram PDF

Sectional Chart

Flight Planning
at skyvector.com

Satellite Image

Google Maps Satellite view

 

Copyright © 2004-2019 Karl L. Swartz. All rights reserved.
The Great Circle Mapper name and logo are trademarks of the Great Circle Mapper.
All other trademarks mentioned herein belong to their respective owners.
Please see credits for attibutions and further copyright information.

  Follow gcmap on Facebook Follow gcmap on Twitter GCmap on LinkedIn

hCard Microformat

Geo Microformat